sensor_id;sensor_type;location;lat;lon;timestamp;temperature;humidity
64561;DHT22;50960;46.838;16.838;2023-07-31T00:01:45;17.20;99.90
64561;DHT22;50960;46.838;16.838;2023-07-31T00:04:11;17.10;99.90
64561;DHT22;50960;46.838;16.838;2023-07-31T00:06:37;17.10;99.90
64561;DHT22;50960;46.838;16.838;2023-07-31T00:09:04;17.10;99.90
64561;DHT22;50960;46.838;16.838;2023-07-31T00:11:30;17.10;99.90
64561;DHT22;50960;46.838;16.838;2023-07-31T00:13:56;17.10;99.90
64561;DHT22;50960;46.838;16.838;2023-07-31T00:16:22;17.10;99.90
64561;DHT22;50960;46.838;16.838;2023-07-31T00:18:48;17.10;99.90
64561;DHT22;50960;46.838;16.838;2023-07-31T00:21:15;17.10;99.90
64561;DHT22;50960;46.838;16.838;2023-07-31T00:23:41;17.00;99.90
64561;DHT22;50960;46.838;16.838;2023-07-31T00:26:07;17.00;99.90
64561;DHT22;50960;46.838;16.838;2023-07-31T00:28:33;17.00;99.90
64561;DHT22;50960;46.838;16.838;2023-07-31T00:31:00;17.00;99.90
64561;DHT22;50960;46.838;16.838;2023-07-31T00:33:27;17.00;99.90
64561;DHT22;50960;46.838;16.838;2023-07-31T00:35:53;17.00;99.90
64561;DHT22;50960;46.838;16.838;2023-07-31T00:38:20;17.00;99.90
64561;DHT22;50960;46.838;16.838;2023-07-31T00:40:46;17.00;99.90
64561;DHT22;50960;46.838;16.838;2023-07-31T00:43:12;17.00;99.90
64561;DHT22;50960;46.838;16.838;2023-07-31T00:45:39;16.90;99.90
64561;DHT22;50960;46.838;16.838;2023-07-31T00:48:05;17.00;99.90
64561;DHT22;50960;46.838;16.838;2023-07-31T00:50:33;16.90;99.90
64561;DHT22;50960;46.838;16.838;2023-07-31T00:52:59;16.90;99.90
64561;DHT22;50960;46.838;16.838;2023-07-31T00:55:26;16.90;99.90
64561;DHT22;50960;46.838;16.838;2023-07-31T00:57:52;16.90;99.90
64561;DHT22;50960;46.838;16.838;2023-07-31T01:00:21;16.90;99.90
64561;DHT22;50960;46.838;16.838;2023-07-31T01:02:49;16.80;99.90
64561;DHT22;50960;46.838;16.838;2023-07-31T01:05:15;16.90;99.90
64561;DHT22;50960;46.838;16.838;2023-07-31T01:08:07;16.90;99.90
64561;DHT22;50960;46.838;16.838;2023-07-31T01:10:45;16.90;99.90
64561;DHT22;50960;46.838;16.838;2023-07-31T01:13:13;16.80;99.90
64561;DHT22;50960;46.838;16.838;2023-07-31T01:15:40;16.80;99.90
64561;DHT22;50960;46.838;16.838;2023-07-31T01:18:06;16.80;99.90
64561;DHT22;50960;46.838;16.838;2023-07-31T01:20:33;16.70;99.90
64561;DHT22;50960;46.838;16.838;2023-07-31T01:23:10;16.80;99.90
64561;DHT22;50960;46.838;16.838;2023-07-31T01:31:22;16.70;99.90
64561;DHT22;50960;46.838;16.838;2023-07-31T01:33:50;16.80;99.90
64561;DHT22;50960;46.838;16.838;2023-07-31T01:36:17;16.80;99.90
64561;DHT22;50960;46.838;16.838;2023-07-31T01:38:43;16.80;99.90
64561;DHT22;50960;46.838;16.838;2023-07-31T01:41:10;16.80;99.90
64561;DHT22;50960;46.838;16.838;2023-07-31T01:43:36;16.80;99.90
64561;DHT22;50960;46.838;16.838;2023-07-31T01:46:02;16.90;99.90
64561;DHT22;50960;46.838;16.838;2023-07-31T01:48:28;16.80;99.90
64561;DHT22;50960;46.838;16.838;2023-07-31T01:50:55;16.80;99.90
64561;DHT22;50960;46.838;16.838;2023-07-31T01:53:21;16.80;99.90
64561;DHT22;50960;46.838;16.838;2023-07-31T01:55:47;16.80;99.90
64561;DHT22;50960;46.838;16.838;2023-07-31T01:58:13;16.60;99.90
64561;DHT22;50960;46.838;16.838;2023-07-31T02:00:40;16.60;99.90
64561;DHT22;50960;46.838;16.838;2023-07-31T02:03:06;16.70;99.90
64561;DHT22;50960;46.838;16.838;2023-07-31T02:05:32;16.70;99.90
64561;DHT22;50960;46.838;16.838;2023-07-31T02:07:58;16.70;99.90
64561;DHT22;50960;46.838;16.838;2023-07-31T02:10:25;16.70;99.90
64561;DHT22;50960;46.838;16.838;2023-07-31T02:12:51;16.70;99.90
64561;DHT22;50960;46.838;16.838;2023-07-31T02:15:17;16.70;99.90
64561;DHT22;50960;46.838;16.838;2023-07-31T02:17:44;16.60;99.90
64561;DHT22;50960;46.838;16.838;2023-07-31T02:20:11;16.70;99.90
64561;DHT22;50960;46.838;16.838;2023-07-31T02:22:37;16.60;99.90
64561;DHT22;50960;46.838;16.838;2023-07-31T02:25:04;16.70;99.90
64561;DHT22;50960;46.838;16.838;2023-07-31T02:27:30;16.70;99.90
64561;DHT22;50960;46.838;16.838;2023-07-31T02:29:56;16.60;99.90
64561;DHT22;50960;46.838;16.838;2023-07-31T02:32:25;16.60;99.90
64561;DHT22;50960;46.838;16.838;2023-07-31T02:34:51;16.60;99.90
64561;DHT22;50960;46.838;16.838;2023-07-31T02:37:17;16.60;99.90
64561;DHT22;50960;46.838;16.838;2023-07-31T02:39:44;16.60;99.90
64561;DHT22;50960;46.838;16.838;2023-07-31T02:42:10;16.60;99.90
64561;DHT22;50960;46.838;16.838;2023-07-31T02:44:36;16.60;99.90
64561;DHT22;50960;46.838;16.838;2023-07-31T02:47:03;16.60;99.90
64561;DHT22;50960;46.838;16.838;2023-07-31T02:49:29;16.60;99.90
64561;DHT22;50960;46.838;16.838;2023-07-31T02:51:55;16.60;99.90
64561;DHT22;50960;46.838;16.838;2023-07-31T02:54:21;16.60;99.90
64561;DHT22;50960;46.838;16.838;2023-07-31T02:56:48;16.50;99.90
64561;DHT22;50960;46.838;16.838;2023-07-31T02:59:15;16.50;99.90
64561;DHT22;50960;46.838;16.838;2023-07-31T03:01:41;16.40;99.90
64561;DHT22;50960;46.838;16.838;2023-07-31T03:04:07;16.40;99.90
64561;DHT22;50960;46.838;16.838;2023-07-31T03:06:33;16.40;99.90
64561;DHT22;50960;46.838;16.838;2023-07-31T03:09:00;16.40;99.90
64561;DHT22;50960;46.838;16.838;2023-07-31T03:11:26;16.30;99.90
64561;DHT22;50960;46.838;16.838;2023-07-31T03:13:52;16.30;99.90
64561;DHT22;50960;46.838;16.838;2023-07-31T03:16:18;16.30;99.90
64561;DHT22;50960;46.838;16.838;2023-07-31T03:18:45;16.30;99.90
64561;DHT22;50960;46.838;16.838;2023-07-31T03:21:12;16.30;99.90
64561;DHT22;50960;46.838;16.838;2023-07-31T03:23:39;16.30;99.90
64561;DHT22;50960;46.838;16.838;2023-07-31T03:26:07;16.30;99.90
64561;DHT22;50960;46.838;16.838;2023-07-31T03:28:34;16.40;99.90
64561;DHT22;50960;46.838;16.838;2023-07-31T03:31:00;16.40;99.90
64561;DHT22;50960;46.838;16.838;2023-07-31T03:33:26;16.40;99.90
64561;DHT22;50960;46.838;16.838;2023-07-31T03:35:53;16.40;99.90
64561;DHT22;50960;46.838;16.838;2023-07-31T03:38:20;16.30;99.90
64561;DHT22;50960;46.838;16.838;2023-07-31T03:40:46;16.40;99.90
64561;DHT22;50960;46.838;16.838;2023-07-31T03:43:14;16.30;99.90
64561;DHT22;50960;46.838;16.838;2023-07-31T03:45:41;16.30;99.90
64561;DHT22;50960;46.838;16.838;2023-07-31T03:48:08;16.40;99.90
64561;DHT22;50960;46.838;16.838;2023-07-31T03:50:34;16.30;99.90
64561;DHT22;50960;46.838;16.838;2023-07-31T03:53:00;16.40;99.90
64561;DHT22;50960;46.838;16.838;2023-07-31T03:55:27;16.40;99.90
64561;DHT22;50960;46.838;16.838;2023-07-31T03:57:53;16.40;99.90
64561;DHT22;50960;46.838;16.838;2023-07-31T04:00:19;16.50;99.90
64561;DHT22;50960;46.838;16.838;2023-07-31T04:02:46;16.50;99.90
64561;DHT22;50960;46.838;16.838;2023-07-31T04:05:12;16.50;99.90
64561;DHT22;50960;46.838;16.838;2023-07-31T04:07:39;16.50;99.90
64561;DHT22;50960;46.838;16.838;2023-07-31T04:10:05;16.60;99.90
64561;DHT22;50960;46.838;16.838;2023-07-31T04:12:31;16.60;99.90
64561;DHT22;50960;46.838;16.838;2023-07-31T04:14:58;16.60;99.90
64561;DHT22;50960;46.838;16.838;2023-07-31T04:17:24;16.70;99.90
64561;DHT22;50960;46.838;16.838;2023-07-31T04:19:50;16.70;99.90
64561;DHT22;50960;46.838;16.838;2023-07-31T04:22:17;16.80;99.90
64561;DHT22;50960;46.838;16.838;2023-07-31T04:24:43;16.90;99.90
64561;DHT22;50960;46.838;16.838;2023-07-31T04:27:09;16.90;99.90
64561;DHT22;50960;46.838;16.838;2023-07-31T04:29:37;16.90;99.90
64561;DHT22;50960;46.838;16.838;2023-07-31T04:32:06;16.90;99.90
64561;DHT22;50960;46.838;16.838;2023-07-31T04:34:32;16.80;99.90
64561;DHT22;50960;46.838;16.838;2023-07-31T04:36:58;16.80;99.90
64561;DHT22;50960;46.838;16.838;2023-07-31T04:39:24;16.80;99.90
64561;DHT22;50960;46.838;16.838;2023-07-31T04:41:50;16.80;99.90
64561;DHT22;50960;46.838;16.838;2023-07-31T04:47:39;16.90;99.90
64561;DHT22;50960;46.838;16.838;2023-07-31T04:50:06;16.90;99.90
64561;DHT22;50960;46.838;16.838;2023-07-31T04:52:32;16.80;99.90
64561;DHT22;50960;46.838;16.838;2023-07-31T04:54:58;16.80;99.90
64561;DHT22;50960;46.838;16.838;2023-07-31T04:57:25;16.80;99.90
64561;DHT22;50960;46.838;16.838;2023-07-31T04:59:51;16.90;99.90
64561;DHT22;50960;46.838;16.838;2023-07-31T05:02:17;16.80;99.90
64561;DHT22;50960;46.838;16.838;2023-07-31T05:04:44;16.90;99.90
64561;DHT22;50960;46.838;16.838;2023-07-31T05:07:10;16.90;99.90
64561;DHT22;50960;46.838;16.838;2023-07-31T05:09:36;16.90;99.90
64561;DHT22;50960;46.838;16.838;2023-07-31T05:12:05;17.00;99.90
64561;DHT22;50960;46.838;16.838;2023-07-31T05:14:31;17.00;99.90
64561;DHT22;50960;46.838;16.838;2023-07-31T05:16:58;17.10;99.90
64561;DHT22;50960;46.838;16.838;2023-07-31T05:19:24;17.10;99.90
64561;DHT22;50960;46.838;16.838;2023-07-31T05:21:50;17.20;99.90
64561;DHT22;50960;46.838;16.838;2023-07-31T05:24:16;17.20;99.90
64561;DHT22;50960;46.838;16.838;2023-07-31T05:26:43;17.30;99.90
64561;DHT22;50960;46.838;16.838;2023-07-31T05:29:09;17.40;99.90
64561;DHT22;50960;46.838;16.838;2023-07-31T05:31:35;17.50;99.90
64561;DHT22;50960;46.838;16.838;2023-07-31T05:34:02;17.50;99.90
64561;DHT22;50960;46.838;16.838;2023-07-31T05:36:28;17.50;99.90
64561;DHT22;50960;46.838;16.838;2023-07-31T05:38:54;17.60;99.90
64561;DHT22;50960;46.838;16.838;2023-07-31T05:41:20;17.60;99.90
64561;DHT22;50960;46.838;16.838;2023-07-31T05:43:47;17.70;99.90
64561;DHT22;50960;46.838;16.838;2023-07-31T05:46:13;17.70;99.90
64561;DHT22;50960;46.838;16.838;2023-07-31T05:48:39;17.80;99.90
64561;DHT22;50960;46.838;16.838;2023-07-31T05:51:05;17.90;99.90
64561;DHT22;50960;46.838;16.838;2023-07-31T05:53:33;17.90;99.90
64561;DHT22;50960;46.838;16.838;2023-07-31T05:55:59;17.90;99.90
64561;DHT22;50960;46.838;16.838;2023-07-31T05:58:25;17.90;99.90
64561;DHT22;50960;46.838;16.838;2023-07-31T06:00:51;18.00;99.90
64561;DHT22;50960;46.838;16.838;2023-07-31T06:03:18;18.00;99.90
64561;DHT22;50960;46.838;16.838;2023-07-31T06:05:44;18.10;99.90
64561;DHT22;50960;46.838;16.838;2023-07-31T06:08:10;18.10;99.90
64561;DHT22;50960;46.838;16.838;2023-07-31T06:10:37;18.10;99.90
64561;DHT22;50960;46.838;16.838;2023-07-31T06:13:03;18.20;99.90
64561;DHT22;50960;46.838;16.838;2023-07-31T06:15:30;18.20;99.90
64561;DHT22;50960;46.838;16.838;2023-07-31T06:17:56;18.30;99.90
64561;DHT22;50960;46.838;16.838;2023-07-31T06:20:23;18.30;99.90
64561;DHT22;50960;46.838;16.838;2023-07-31T06:22:49;18.30;99.90
64561;DHT22;50960;46.838;16.838;2023-07-31T06:25:16;18.40;99.90
64561;DHT22;50960;46.838;16.838;2023-07-31T06:27:42;18.40;99.90
64561;DHT22;50960;46.838;16.838;2023-07-31T06:30:09;18.50;99.90
64561;DHT22;50960;46.838;16.838;2023-07-31T06:32:35;18.60;99.90
64561;DHT22;50960;46.838;16.838;2023-07-31T06:35:02;18.60;99.90
64561;DHT22;50960;46.838;16.838;2023-07-31T06:37:28;18.60;99.90
64561;DHT22;50960;46.838;16.838;2023-07-31T06:39:54;18.60;99.90
64561;DHT22;50960;46.838;16.838;2023-07-31T06:42:22;18.60;99.90
64561;DHT22;50960;46.838;16.838;2023-07-31T06:44:49;18.70;99.90
64561;DHT22;50960;46.838;16.838;2023-07-31T06:47:15;18.80;99.90
64561;DHT22;50960;46.838;16.838;2023-07-31T06:49:41;18.80;99.90
64561;DHT22;50960;46.838;16.838;2023-07-31T06:52:07;18.90;99.90
64561;DHT22;50960;46.838;16.838;2023-07-31T06:54:34;18.90;99.90
64561;DHT22;50960;46.838;16.838;2023-07-31T06:57:01;18.90;99.90
64561;DHT22;50960;46.838;16.838;2023-07-31T06:59:33;19.00;99.90
64561;DHT22;50960;46.838;16.838;2023-07-31T07:01:59;19.10;99.90
64561;DHT22;50960;46.838;16.838;2023-07-31T07:04:25;19.10;99.90
64561;DHT22;50960;46.838;16.838;2023-07-31T07:06:52;19.20;99.90
64561;DHT22;50960;46.838;16.838;2023-07-31T07:09:19;19.30;99.90
64561;DHT22;50960;46.838;16.838;2023-07-31T07:11:45;19.30;99.90
64561;DHT22;50960;46.838;16.838;2023-07-31T07:14:11;19.40;99.90
64561;DHT22;50960;46.838;16.838;2023-07-31T07:16:38;19.40;99.90
64561;DHT22;50960;46.838;16.838;2023-07-31T07:19:06;19.50;99.90
64561;DHT22;50960;46.838;16.838;2023-07-31T07:21:33;19.60;99.90
64561;DHT22;50960;46.838;16.838;2023-07-31T07:23:59;19.60;99.90
64561;DHT22;50960;46.838;16.838;2023-07-31T07:26:25;19.60;99.90
64561;DHT22;50960;46.838;16.838;2023-07-31T07:28:51;19.70;99.90
64561;DHT22;50960;46.838;16.838;2023-07-31T07:31:18;19.80;99.90
64561;DHT22;50960;46.838;16.838;2023-07-31T07:33:44;19.80;99.90
64561;DHT22;50960;46.838;16.838;2023-07-31T07:36:10;19.90;99.90
64561;DHT22;50960;46.838;16.838;2023-07-31T07:38:38;20.00;99.90
64561;DHT22;50960;46.838;16.838;2023-07-31T07:41:05;20.00;99.90
64561;DHT22;50960;46.838;16.838;2023-07-31T07:43:32;20.00;99.90
64561;DHT22;50960;46.838;16.838;2023-07-31T07:45:58;20.10;99.90
64561;DHT22;50960;46.838;16.838;2023-07-31T07:48:24;20.20;99.90
64561;DHT22;50960;46.838;16.838;2023-07-31T07:50:51;20.20;99.90
64561;DHT22;50960;46.838;16.838;2023-07-31T07:53:17;20.30;99.90
64561;DHT22;50960;46.838;16.838;2023-07-31T07:55:44;20.50;99.40
64561;DHT22;50960;46.838;16.838;2023-07-31T07:58:10;20.50;99.30
64561;DHT22;50960;46.838;16.838;2023-07-31T08:00:36;20.60;99.60
64561;DHT22;50960;46.838;16.838;2023-07-31T08:03:03;20.50;99.60
64561;DHT22;50960;46.838;16.838;2023-07-31T08:05:29;20.60;99.50
64561;DHT22;50960;46.838;16.838;2023-07-31T08:07:55;20.60;99.90
64561;DHT22;50960;46.838;16.838;2023-07-31T08:10:22;20.60;99.20
64561;DHT22;50960;46.838;16.838;2023-07-31T08:12:48;20.60;99.30
64561;DHT22;50960;46.838;16.838;2023-07-31T08:15:14;20.70;96.30
64561;DHT22;50960;46.838;16.838;2023-07-31T08:17:40;20.80;96.80
64561;DHT22;50960;46.838;16.838;2023-07-31T08:20:07;20.90;96.80
64561;DHT22;50960;46.838;16.838;2023-07-31T08:22:34;20.90;95.40
64561;DHT22;50960;46.838;16.838;2023-07-31T08:25:00;20.90;97.40
64561;DHT22;50960;46.838;16.838;2023-07-31T08:27:26;20.90;96.50
64561;DHT22;50960;46.838;16.838;2023-07-31T08:29:53;20.90;95.40
64561;DHT22;50960;46.838;16.838;2023-07-31T08:32:19;21.00;95.20
64561;DHT22;50960;46.838;16.838;2023-07-31T08:34:45;21.00;95.20
64561;DHT22;50960;46.838;16.838;2023-07-31T08:37:11;20.90;95.30
64561;DHT22;50960;46.838;16.838;2023-07-31T08:39:38;21.00;94.40
64561;DHT22;50960;46.838;16.838;2023-07-31T08:42:08;21.10;95.20
64561;DHT22;50960;46.838;16.838;2023-07-31T08:44:35;21.10;94.40
64561;DHT22;50960;46.838;16.838;2023-07-31T08:47:02;21.30;94.40
64561;DHT22;50960;46.838;16.838;2023-07-31T08:49:29;21.40;94.30
64561;DHT22;50960;46.838;16.838;2023-07-31T08:51:56;21.40;94.20
64561;DHT22;50960;46.838;16.838;2023-07-31T08:54:23;21.50;92.70
64561;DHT22;50960;46.838;16.838;2023-07-31T08:56:51;21.50;92.80
64561;DHT22;50960;46.838;16.838;2023-07-31T08:59:19;21.50;92.30
64561;DHT22;50960;46.838;16.838;2023-07-31T09:01:50;21.50;92.20
64561;DHT22;50960;46.838;16.838;2023-07-31T09:04:20;21.50;92.60
64561;DHT22;50960;46.838;16.838;2023-07-31T09:06:47;21.50;93.00
64561;DHT22;50960;46.838;16.838;2023-07-31T09:09:14;21.60;93.60
64561;DHT22;50960;46.838;16.838;2023-07-31T09:11:41;21.70;93.90
64561;DHT22;50960;46.838;16.838;2023-07-31T09:14:08;21.70;92.70
64561;DHT22;50960;46.838;16.838;2023-07-31T09:16:37;21.70;95.10
64561;DHT22;50960;46.838;16.838;2023-07-31T09:19:29;21.80;92.40
64561;DHT22;50960;46.838;16.838;2023-07-31T09:21:55;21.90;92.20
64561;DHT22;50960;46.838;16.838;2023-07-31T09:24:26;22.00;91.00
64561;DHT22;50960;46.838;16.838;2023-07-31T09:26:58;22.00;90.90
64561;DHT22;50960;46.838;16.838;2023-07-31T09:29:25;22.00;89.90
64561;DHT22;50960;46.838;16.838;2023-07-31T09:31:53;22.20;90.40
64561;DHT22;50960;46.838;16.838;2023-07-31T09:34:28;22.40;89.80
64561;DHT22;50960;46.838;16.838;2023-07-31T09:37:02;22.50;89.70
64561;DHT22;50960;46.838;16.838;2023-07-31T09:39:29;22.60;87.40
64561;DHT22;50960;46.838;16.838;2023-07-31T09:41:57;22.50;90.40
64561;DHT22;50960;46.838;16.838;2023-07-31T09:44:40;22.50;83.90
64561;DHT22;50960;46.838;16.838;2023-07-31T09:47:08;22.60;84.60
64561;DHT22;50960;46.838;16.838;2023-07-31T09:49:46;22.70;84.30
64561;DHT22;50960;46.838;16.838;2023-07-31T09:52:13;22.70;86.30
64561;DHT22;50960;46.838;16.838;2023-07-31T09:54:40;22.60;84.20
64561;DHT22;50960;46.838;16.838;2023-07-31T09:57:07;22.60;81.30
64561;DHT22;50960;46.838;16.838;2023-07-31T09:59:35;22.60;80.20
64561;DHT22;50960;46.838;16.838;2023-07-31T10:02:02;22.60;79.80
64561;DHT22;50960;46.838;16.838;2023-07-31T10:04:29;22.60;82.70
64561;DHT22;50960;46.838;16.838;2023-07-31T10:06:57;22.80;80.60
64561;DHT22;50960;46.838;16.838;2023-07-31T10:09:26;22.80;83.80
64561;DHT22;50960;46.838;16.838;2023-07-31T10:11:59;22.90;80.70
64561;DHT22;50960;46.838;16.838;2023-07-31T10:14:26;23.00;81.00
64561;DHT22;50960;46.838;16.838;2023-07-31T10:16:54;23.00;81.10
64561;DHT22;50960;46.838;16.838;2023-07-31T10:19:21;23.00;82.70
64561;DHT22;50960;46.838;16.838;2023-07-31T10:21:48;23.00;79.30
64561;DHT22;50960;46.838;16.838;2023-07-31T10:24:16;23.00;81.70
64561;DHT22;50960;46.838;16.838;2023-07-31T10:26:45;23.00;75.10
64561;DHT22;50960;46.838;16.838;2023-07-31T10:29:13;23.00;76.10
64561;DHT22;50960;46.838;16.838;2023-07-31T10:31:41;23.00;76.70
64561;DHT22;50960;46.838;16.838;2023-07-31T10:34:08;23.20;79.60
64561;DHT22;50960;46.838;16.838;2023-07-31T10:36:35;23.30;77.90
64561;DHT22;50960;46.838;16.838;2023-07-31T10:39:04;23.40;77.70
64561;DHT22;50960;46.838;16.838;2023-07-31T10:41:31;23.50;78.50
64561;DHT22;50960;46.838;16.838;2023-07-31T10:43:59;23.60;76.80
64561;DHT22;50960;46.838;16.838;2023-07-31T10:46:28;23.70;74.60
64561;DHT22;50960;46.838;16.838;2023-07-31T10:49:02;23.90;77.40
64561;DHT22;50960;46.838;16.838;2023-07-31T10:51:35;24.10;73.60
64561;DHT22;50960;46.838;16.838;2023-07-31T10:54:16;24.20;70.20
64561;DHT22;50960;46.838;16.838;2023-07-31T10:56:50;24.20;69.30
64561;DHT22;50960;46.838;16.838;2023-07-31T10:59:18;24.30;67.20
64561;DHT22;50960;46.838;16.838;2023-07-31T11:01:56;24.40;63.70
64561;DHT22;50960;46.838;16.838;2023-07-31T11:04:29;24.30;65.20
64561;DHT22;50960;46.838;16.838;2023-07-31T11:06:59;24.30;63.50
64561;DHT22;50960;46.838;16.838;2023-07-31T11:09:30;24.40;64.60
64561;DHT22;50960;46.838;16.838;2023-07-31T11:11:58;24.60;62.40
64561;DHT22;50960;46.838;16.838;2023-07-31T11:14:25;24.70;62.20
64561;DHT22;50960;46.838;16.838;2023-07-31T11:16:51;24.80;61.10
64561;DHT22;50960;46.838;16.838;2023-07-31T11:19:25;24.90;61.00
64561;DHT22;50960;46.838;16.838;2023-07-31T11:21:52;24.90;60.00
64561;DHT22;50960;46.838;16.838;2023-07-31T11:24:19;25.30;59.30
64561;DHT22;50960;46.838;16.838;2023-07-31T11:26:53;25.60;58.50
64561;DHT22;50960;46.838;16.838;2023-07-31T11:29:20;25.30;59.00
64561;DHT22;50960;46.838;16.838;2023-07-31T11:31:47;25.40;59.40
64561;DHT22;50960;46.838;16.838;2023-07-31T11:34:15;25.70;56.40
64561;DHT22;50960;46.838;16.838;2023-07-31T11:36:53;26.10;56.50
64561;DHT22;50960;46.838;16.838;2023-07-31T11:39:20;26.60;56.60
64561;DHT22;50960;46.838;16.838;2023-07-31T11:41:48;27.10;55.40
64561;DHT22;50960;46.838;16.838;2023-07-31T11:44:14;27.40;55.80
64561;DHT22;50960;46.838;16.838;2023-07-31T11:46:40;27.40;53.70
64561;DHT22;50960;46.838;16.838;2023-07-31T11:49:07;27.20;54.30
64561;DHT22;50960;46.838;16.838;2023-07-31T11:51:34;27.30;52.60
64561;DHT22;50960;46.838;16.838;2023-07-31T11:54:01;27.80;53.60
64561;DHT22;50960;46.838;16.838;2023-07-31T11:56:28;28.30;52.00
64561;DHT22;50960;46.838;16.838;2023-07-31T11:58:58;28.40;52.70
64561;DHT22;50960;46.838;16.838;2023-07-31T12:01:25;28.40;52.20
64561;DHT22;50960;46.838;16.838;2023-07-31T12:03:54;28.20;52.30
64561;DHT22;50960;46.838;16.838;2023-07-31T12:06:20;28.20;52.20
64561;DHT22;50960;46.838;16.838;2023-07-31T12:08:47;28.10;51.00
64561;DHT22;50960;46.838;16.838;2023-07-31T12:11:13;28.30;50.40
64561;DHT22;50960;46.838;16.838;2023-07-31T12:13:40;28.30;50.60
64561;DHT22;50960;46.838;16.838;2023-07-31T12:16:07;28.20;51.10
64561;DHT22;50960;46.838;16.838;2023-07-31T12:18:35;28.60;51.20
64561;DHT22;50960;46.838;16.838;2023-07-31T12:21:05;28.70;50.70
64561;DHT22;50960;46.838;16.838;2023-07-31T12:23:33;29.10;50.00
64561;DHT22;50960;46.838;16.838;2023-07-31T12:26:12;29.40;48.90
64561;DHT22;50960;46.838;16.838;2023-07-31T12:28:47;29.80;49.10
64561;DHT22;50960;46.838;16.838;2023-07-31T12:31:16;29.70;49.60
64561;DHT22;50960;46.838;16.838;2023-07-31T12:33:49;30.10;48.20
64561;DHT22;50960;46.838;16.838;2023-07-31T12:36:23;30.40;46.90
64561;DHT22;50960;46.838;16.838;2023-07-31T12:38:51;30.40;46.30
64561;DHT22;50960;46.838;16.838;2023-07-31T12:41:18;30.70;45.90
64561;DHT22;50960;46.838;16.838;2023-07-31T12:43:45;31.00;44.70
64561;DHT22;50960;46.838;16.838;2023-07-31T12:46:11;30.40;76.40
64561;DHT22;50960;46.838;16.838;2023-07-31T12:56:03;33.20;89.70
64561;DHT22;50960;46.838;16.838;2023-07-31T12:58:29;33.10;85.10
64561;DHT22;50960;46.838;16.838;2023-07-31T13:00:55;32.90;41.60
64561;DHT22;50960;46.838;16.838;2023-07-31T13:03:22;33.50;44.00
64561;DHT22;50960;46.838;16.838;2023-07-31T13:05:48;32.90;44.90
64561;DHT22;50960;46.838;16.838;2023-07-31T13:10:43;33.10;40.60
64561;DHT22;50960;46.838;16.838;2023-07-31T13:15:36;31.30;51.80
64561;DHT22;50960;46.838;16.838;2023-07-31T13:18:03;32.90;63.50
64561;DHT22;50960;46.838;16.838;2023-07-31T13:20:29;33.80;63.40
64561;DHT22;50960;46.838;16.838;2023-07-31T13:22:55;34.60;61.40
64561;DHT22;50960;46.838;16.838;2023-07-31T13:25:21;33.10;58.60
64561;DHT22;50960;46.838;16.838;2023-07-31T13:27:48;33.80;60.40
64561;DHT22;50960;46.838;16.838;2023-07-31T13:30:14;33.20;56.90
64561;DHT22;50960;46.838;16.838;2023-07-31T13:32:40;33.60;58.30
64561;DHT22;50960;46.838;16.838;2023-07-31T13:35:07;35.50;59.00
64561;DHT22;50960;46.838;16.838;2023-07-31T13:37:35;35.90;61.50
64561;DHT22;50960;46.838;16.838;2023-07-31T13:40:01;36.00;61.70
64561;DHT22;50960;46.838;16.838;2023-07-31T13:42:31;35.20;57.10
64561;DHT22;50960;46.838;16.838;2023-07-31T13:44:57;36.60;54.90
64561;DHT22;50960;46.838;16.838;2023-07-31T13:47:24;40.30;46.30
64561;DHT22;50960;46.838;16.838;2023-07-31T13:49:50;38.30;49.90
64561;DHT22;50960;46.838;16.838;2023-07-31T13:52:16;39.00;29.60
64561;DHT22;50960;46.838;16.838;2023-07-31T13:54:42;39.40;30.20
64561;DHT22;50960;46.838;16.838;2023-07-31T13:57:09;38.00;30.40
64561;DHT22;50960;46.838;16.838;2023-07-31T13:59:35;38.20;32.10
64561;DHT22;50960;46.838;16.838;2023-07-31T14:02:02;37.90;30.70
64561;DHT22;50960;46.838;16.838;2023-07-31T14:04:29;37.50;32.80
64561;DHT22;50960;46.838;16.838;2023-07-31T14:06:58;37.10;33.40
64561;DHT22;50960;46.838;16.838;2023-07-31T14:09:25;35.50;61.40
64561;DHT22;50960;46.838;16.838;2023-07-31T14:11:51;32.00;38.10
64561;DHT22;50960;46.838;16.838;2023-07-31T14:14:18;31.60;39.80
64561;DHT22;50960;46.838;16.838;2023-07-31T14:16:45;31.30;39.90
64561;DHT22;50960;46.838;16.838;2023-07-31T14:19:11;30.70;40.50
64561;DHT22;50960;46.838;16.838;2023-07-31T14:24:04;29.90;42.70
64561;DHT22;50960;46.838;16.838;2023-07-31T14:26:31;29.70;43.80
64561;DHT22;50960;46.838;16.838;2023-07-31T14:28:58;30.30;43.60
64561;DHT22;50960;46.838;16.838;2023-07-31T14:31:24;31.00;43.50
64561;DHT22;50960;46.838;16.838;2023-07-31T14:33:51;31.70;43.60
64561;DHT22;50960;46.838;16.838;2023-07-31T14:36:17;35.30;39.30
64561;DHT22;50960;46.838;16.838;2023-07-31T14:38:43;34.00;38.10
64561;DHT22;50960;46.838;16.838;2023-07-31T14:41:09;33.00;40.00
64561;DHT22;50960;46.838;16.838;2023-07-31T14:43:36;33.20;39.80
64561;DHT22;50960;46.838;16.838;2023-07-31T14:46:02;33.40;40.00
64561;DHT22;50960;46.838;16.838;2023-07-31T14:48:29;37.50;33.90
64561;DHT22;50960;46.838;16.838;2023-07-31T14:50:55;37.30;34.50
64561;DHT22;50960;46.838;16.838;2023-07-31T14:53:21;43.30;29.90
64561;DHT22;50960;46.838;16.838;2023-07-31T14:55:48;44.70;31.20
64561;DHT22;50960;46.838;16.838;2023-07-31T15:00:42;48.80;24.70
64561;DHT22;50960;46.838;16.838;2023-07-31T15:03:09;48.80;25.70
64561;DHT22;50960;46.838;16.838;2023-07-31T15:05:35;50.00;25.60
64561;DHT22;50960;46.838;16.838;2023-07-31T15:08:01;53.40;25.40
64561;DHT22;50960;46.838;16.838;2023-07-31T15:10:28;53.80;23.80
64561;DHT22;50960;46.838;16.838;2023-07-31T15:12:54;53.30;22.70
64561;DHT22;50960;46.838;16.838;2023-07-31T15:15:20;54.00;21.00
64561;DHT22;50960;46.838;16.838;2023-07-31T15:17:47;52.40;21.90
64561;DHT22;50960;46.838;16.838;2023-07-31T15:20:13;53.60;22.60
64561;DHT22;50960;46.838;16.838;2023-07-31T15:22:39;53.40;22.60
64561;DHT22;50960;46.838;16.838;2023-07-31T15:25:07;51.60;20.80
64561;DHT22;50960;46.838;16.838;2023-07-31T15:27:34;53.00;22.00
64561;DHT22;50960;46.838;16.838;2023-07-31T15:30:00;56.40;21.60
64561;DHT22;50960;46.838;16.838;2023-07-31T15:32:26;56.10;20.60
64561;DHT22;50960;46.838;16.838;2023-07-31T15:34:53;55.80;19.70
64561;DHT22;50960;46.838;16.838;2023-07-31T15:37:19;55.50;21.20
64561;DHT22;50960;46.838;16.838;2023-07-31T15:39:45;58.70;21.00
64561;DHT22;50960;46.838;16.838;2023-07-31T15:42:12;50.70;21.80